createdAt,value
2019-04-29T04:00:19.350Z,12.40
2019-04-29T04:02:59.933Z,13.43
2019-04-29T04:05:35.387Z,14.40
2019-04-29T04:08:09.605Z,15.87
2019-04-29T04:10:38.368Z,13.53
2019-04-29T04:13:07.170Z,11.90
2019-04-29T04:15:36.149Z,12.93
2019-04-29T04:18:10.510Z,15.33
2019-04-29T04:20:39.329Z,14.50
2019-04-29T04:23:08.089Z,13.73
2019-04-29T04:25:36.944Z,16.37
2019-04-29T04:28:05.930Z,12.80
2019-04-29T04:30:34.684Z,12.33
2019-04-29T04:33:03.576Z,13.67
2019-04-29T04:35:32.602Z,14.30
2019-04-29T04:38:01.417Z,10.47
2019-04-29T04:40:34.316Z,12.70
2019-04-29T04:43:03.259Z,12.60
2019-04-29T04:45:32.011Z,11.73
2019-04-29T04:48:00.752Z,14.30
2019-04-29T04:50:29.649Z,15.60
2019-04-29T04:52:58.482Z,12.87
2019-04-29T04:55:30.111Z,13.07
2019-04-29T04:57:58.925Z,13.67
2019-04-29T05:00:29.341Z,13.87
2019-04-29T05:02:58.155Z,16.10
2019-04-29T05:05:26.894Z,13.73
2019-04-29T05:07:56.102Z,15.67
2019-04-29T05:10:24.909Z,15.73
2019-04-29T05:12:53.672Z,13.87
2019-04-29T05:15:22.989Z,16.07
2019-04-29T05:17:53.280Z,14.27
2019-04-29T05:20:22.196Z,14.00
2019-04-29T05:23:00.386Z,14.97
2019-04-29T05:25:30.748Z,19.83
2019-04-29T05:28:00.029Z,19.67
2019-04-29T05:30:28.943Z,18.80
2019-04-29T05:32:57.766Z,17.77
2019-04-29T05:35:32.627Z,18.00
2019-04-29T05:38:07.902Z,18.77
2019-04-29T05:40:37.778Z,17.37
2019-04-29T05:43:07.462Z,18.70
2019-04-29T05:45:46.150Z,18.10
2019-04-29T05:48:14.744Z,20.87
2019-04-29T05:50:53.204Z,21.70
2019-04-29T05:53:25.335Z,20.60
2019-04-29T05:55:54.117Z,23.47
2019-04-29T05:58:22.866Z,22.50
2019-04-29T06:01:13.819Z,19.80
2019-04-29T06:03:44.276Z,23.23
2019-04-29T06:06:13.181Z,21.37
2019-04-29T06:08:42.011Z,24.93
2019-04-29T06:11:11.379Z,24.47
2019-04-29T06:13:40.509Z,25.63
2019-04-29T06:16:09.577Z,23.47
2019-04-29T06:18:40.914Z,19.83
2019-04-29T06:21:09.756Z,23.17
2019-04-29T06:23:38.861Z,21.47
2019-04-29T06:26:07.617Z,25.10
2019-04-29T06:28:36.353Z,27.30
2019-04-29T06:31:05.349Z,26.57
2019-04-29T06:33:34.097Z,22.83
2019-04-29T06:36:02.871Z,23.00
2019-04-29T06:38:32.149Z,36.83
2019-04-29T06:41:00.921Z,24.07
2019-04-29T06:43:30.697Z,27.07
2019-04-29T06:46:00.085Z,30.20
2019-04-29T06:48:28.879Z,37.07
2019-04-29T06:50:57.735Z,41.63
2019-04-29T06:53:26.603Z,34.87
2019-04-29T06:55:56.087Z,38.13
2019-04-29T06:58:25.273Z,28.67
2019-04-29T07:00:55.860Z,30.83
2019-04-29T07:03:25.613Z,29.43
2019-04-29T07:05:55.334Z,32.40
2019-04-29T07:08:24.111Z,28.47
2019-04-29T07:10:55.958Z,28.07
2019-04-29T07:13:24.590Z,50.37
2019-04-29T07:15:53.658Z,33.87
2019-04-29T07:18:22.535Z,74.47
2019-04-29T07:20:51.420Z,31.73
2019-04-29T07:23:20.222Z,41.33
2019-04-29T07:25:49.028Z,47.60
2019-04-29T07:28:18.359Z,39.60
2019-04-29T07:31:01.514Z,38.03
2019-04-29T07:33:22.610Z,35.80
2019-04-29T07:35:49.667Z,39.47
2019-04-29T07:38:18.670Z,50.73
2019-04-29T07:40:47.449Z,38.83
2019-04-29T07:43:16.246Z,39.80
2019-04-29T07:46:16.616Z,43.53
2019-04-29T07:48:45.600Z,35.00
2019-04-29T07:51:14.652Z,61.47
2019-04-29T07:53:45.381Z,43.03
2019-04-29T07:56:13.996Z,36.97
2019-04-29T07:58:42.770Z,54.17
2019-04-29T08:01:11.590Z,41.97
2019-04-29T08:03:40.405Z,52.57
2019-04-29T08:06:09.617Z,71.97
2019-04-29T08:08:38.538Z,36.70
2019-04-29T08:11:07.551Z,49.77
2019-04-29T08:13:37.951Z,45.80
2019-04-29T08:16:06.881Z,79.17
2019-04-29T08:18:35.657Z,57.30
2019-04-29T08:21:04.485Z,64.93
2019-04-29T08:23:40.900Z,56.70
2019-04-29T08:26:04.548Z,75.20
2019-04-29T08:28:33.408Z,72.47
2019-04-29T08:31:02.155Z,53.17
2019-04-29T08:33:31.155Z,88.10
2019-04-29T08:35:59.905Z,65.43
2019-04-29T08:38:28.645Z,36.13
2019-04-29T08:40:57.488Z,66.20
2019-04-29T08:44:15.163Z,73.33
2019-04-29T08:46:39.797Z,40.40
2019-04-29T08:49:11.138Z,55.87
2019-04-29T08:51:39.137Z,40.70
2019-04-29T08:54:07.903Z,46.70
2019-04-29T08:56:36.660Z,46.37
2019-04-29T08:59:05.422Z,64.63
2019-04-29T09:01:35.756Z,33.30
2019-04-29T09:04:04.755Z,50.43
2019-04-29T09:06:33.992Z,39.70
2019-04-29T09:09:04.942Z,31.47
2019-04-29T09:11:33.544Z,33.00
2019-04-29T09:14:02.287Z,66.07
2019-04-29T09:16:31.075Z,32.50
2019-04-29T09:18:59.910Z,59.53
2019-04-29T09:21:28.666Z,56.73
2019-04-29T09:23:57.419Z,55.20
2019-04-29T09:26:40.581Z,34.50
2019-04-29T09:29:27.202Z,49.60
2019-04-29T09:31:56.281Z,42.77
2019-04-29T09:34:26.507Z,37.20
2019-04-29T09:36:56.173Z,44.97
2019-04-29T09:39:25.001Z,62.43
2019-04-29T09:42:03.357Z,60.13
2019-04-29T09:44:49.321Z,97.13
2019-04-29T09:47:18.155Z,46.03
2019-04-29T09:49:46.885Z,49.97
2019-04-29T09:52:15.702Z,37.97
2019-04-29T09:54:44.768Z,56.83
2019-04-29T09:57:13.538Z,76.17
2019-04-29T09:59:46.620Z,40.13
2019-04-29T10:02:33.593Z,52.70
2019-04-29T10:05:21.444Z,82.83
2019-04-29T10:07:50.261Z,53.33
2019-04-29T10:10:19.082Z,51.13
2019-04-29T10:12:47.850Z,42.47
2019-04-29T10:15:18.586Z,37.47
2019-04-29T10:17:59.353Z,37.50
2019-04-29T10:20:50.462Z,38.97
2019-04-29T10:23:19.416Z,56.63
2019-04-29T10:25:48.150Z,37.33
2019-04-29T10:28:16.894Z,51.17
2019-04-29T10:30:45.999Z,37.27
2019-04-29T10:33:17.558Z,28.77
2019-04-29T10:35:46.296Z,38.37
2019-04-29T10:38:15.368Z,37.97
2019-04-29T10:41:00.135Z,50.40
2019-04-29T10:43:49.478Z,38.43
2019-04-29T10:46:34.592Z,23.97
2019-04-29T10:49:09.058Z,27.43
2019-04-29T10:51:38.230Z,26.60
2019-04-29T10:54:07.158Z,28.90
2019-04-29T10:56:39.549Z,21.20
2019-04-29T10:59:09.266Z,17.47
2019-04-29T11:02:33.215Z,13.37
2019-04-29T11:05:18.085Z,19.27
2019-04-29T11:07:47.177Z,16.13
2019-04-29T11:10:25.318Z,34.50
2019-04-29T11:12:54.050Z,23.83
2019-04-29T11:15:28.814Z,29.17
2019-04-29T11:17:59.756Z,21.80
2019-04-29T11:20:27.863Z,23.87
2019-04-29T11:23:02.850Z,21.13
2019-04-29T11:25:40.576Z,15.73
2019-04-29T11:28:12.018Z,20.47
2019-04-29T11:30:40.735Z,16.27
2019-04-29T11:33:21.595Z,18.77
2019-04-29T11:36:08.701Z,13.93
2019-04-29T11:38:38.570Z,23.93
2019-04-29T11:41:07.622Z,21.80
2019-04-29T11:43:36.826Z,25.73
2019-04-29T11:46:05.741Z,30.07
2019-04-29T11:48:34.698Z,20.57
2019-04-29T11:51:10.354Z,22.77
2019-04-29T11:53:39.223Z,16.00
2019-04-29T11:56:08.117Z,18.03
2019-04-29T11:58:59.476Z,14.37
2019-04-29T12:01:39.293Z,16.63
2019-04-29T12:04:12.589Z,15.10
2019-04-29T12:06:41.328Z,15.30
2019-04-29T12:09:10.166Z,15.63
2019-04-29T12:11:39.545Z,21.03
2019-04-29T12:14:14.505Z,12.63
2019-04-29T12:16:47.555Z,18.67
2019-04-29T12:19:21.409Z,19.03
2019-04-29T12:21:50.485Z,28.00
2019-04-29T12:24:19.548Z,20.23
2019-04-29T12:26:48.374Z,19.93
2019-04-29T12:29:18.155Z,22.63
2019-04-29T12:31:54.946Z,18.07
2019-04-29T12:34:48.929Z,33.27
2019-04-29T12:37:40.754Z,20.97
2019-04-29T12:40:27.578Z,22.80
2019-04-29T12:43:21.508Z,34.53
2019-04-29T12:46:04.326Z,41.17
2019-04-29T12:48:33.898Z,38.23
2019-04-29T12:51:03.198Z,29.37
2019-04-29T12:53:32.044Z,42.93
2019-04-29T12:56:00.912Z,32.53
2019-04-29T12:58:29.670Z,34.40
2019-04-29T13:01:05.983Z,24.33
2019-04-29T13:03:49.134Z,33.53
2019-04-29T13:06:38.731Z,24.13
2019-04-29T13:09:01.860Z,32.10
2019-04-29T13:11:40.922Z,20.83
2019-04-29T13:14:02.019Z,30.73
2019-04-29T13:16:55.823Z,25.30
2019-04-29T13:19:31.438Z,34.97
2019-04-29T13:22:00.350Z,39.63
2019-04-29T13:24:29.196Z,29.17
2019-04-29T13:26:58.397Z,27.53
2019-04-29T13:29:27.953Z,22.23
2019-04-29T13:32:01.514Z,22.57
2019-04-29T13:34:33.764Z,21.13
2019-04-29T13:37:07.409Z,23.07
2019-04-29T13:39:39.917Z,21.47
2019-04-29T13:42:09.054Z,21.70
2019-04-29T13:44:41.662Z,18.93
2019-04-29T13:47:18.583Z,24.33
2019-04-29T13:49:50.634Z,21.97
2019-04-29T13:52:19.809Z,56.50
2019-04-29T13:54:48.648Z,35.60
2019-04-29T13:57:17.521Z,32.63
2019-04-29T14:00:01.246Z,36.77
2019-04-29T14:02:36.787Z,23.13
2019-04-29T14:05:06.654Z,22.50
2019-04-29T14:07:35.477Z,20.27
2019-04-29T14:10:05.150Z,30.50
2019-04-29T14:13:00.735Z,27.30
2019-04-29T14:15:04.850Z,35.27
2019-04-29T14:17:35.726Z,30.40
2019-04-29T14:20:04.654Z,29.00
2019-04-29T14:22:33.601Z,38.63
2019-04-29T14:25:02.426Z,25.63
2019-04-29T14:27:31.208Z,37.70
2019-04-29T14:30:03.199Z,35.80
2019-04-29T14:32:34.807Z,39.23
2019-04-29T14:35:11.894Z,37.90
2019-04-29T14:37:53.948Z,32.77
2019-04-29T14:40:12.554Z,50.67
2019-04-29T14:43:02.986Z,37.20
2019-04-29T14:45:48.341Z,39.73
2019-04-29T14:48:41.669Z,41.63
2019-04-29T14:50:59.235Z,41.53
2019-04-29T14:53:27.989Z,42.33
2019-04-29T14:55:57.123Z,41.03
2019-04-29T14:58:25.996Z,34.73
2019-04-29T15:01:08.974Z,38.77
2019-04-29T15:04:17.890Z,38.37
2019-04-29T15:06:40.327Z,74.00
2019-04-29T15:09:16.895Z,51.93
2019-04-29T15:12:02.231Z,62.47
2019-04-29T15:14:37.870Z,46.27
2019-04-29T15:17:14.705Z,48.87
2019-04-29T15:20:10.197Z,58.17
2019-04-29T15:22:39.344Z,69.80
2019-04-29T15:25:09.023Z,77.77
2019-04-29T15:27:38.786Z,133.33
2019-04-29T15:30:08.515Z,115.53
2019-04-29T15:32:37.382Z,83.73
2019-04-29T15:35:06.433Z,98.30
2019-04-29T15:37:35.241Z,123.17
2019-04-29T15:40:04.626Z,156.00
2019-04-29T15:42:33.568Z,124.67
2019-04-29T15:45:02.550Z,94.97
2019-04-29T15:47:31.613Z,101.33
2019-04-29T15:50:06.647Z,119.37
2019-04-29T15:52:31.825Z,107.87
2019-04-29T15:55:00.614Z,116.43
2019-04-29T15:57:29.786Z,118.77
2019-04-29T16:00:01.343Z,106.97
2019-04-29T16:02:29.908Z,185.63
2019-04-29T16:05:09.285Z,106.43
2019-04-29T16:07:57.132Z,159.77
2019-04-29T16:10:51.663Z,182.00
2019-04-29T16:13:22.674Z,153.73
2019-04-29T16:15:51.997Z,127.27
2019-04-29T16:18:20.768Z,166.90
2019-04-29T16:20:53.924Z,132.53
2019-04-29T16:23:20.444Z,134.37
2019-04-29T16:25:52.052Z,120.43
2019-04-29T16:28:24.410Z,188.80
2019-04-29T16:30:50.414Z,146.07
2019-04-29T16:33:19.170Z,138.17
2019-04-29T16:35:47.989Z,119.87
2019-04-29T16:38:16.759Z,152.63
2019-04-29T16:40:56.518Z,194.77
2019-04-29T16:43:32.887Z,129.80
2019-04-29T16:46:08.821Z,222.10
2019-04-29T16:48:37.592Z,143.63
2019-04-29T16:51:13.076Z,152.03
2019-04-29T16:53:37.029Z,104.77
2019-04-29T16:56:05.910Z,162.93
2019-04-29T16:58:34.834Z,108.67
2019-04-29T17:01:03.724Z,145.90
2019-04-29T17:03:32.664Z,156.87
2019-04-29T17:06:01.788Z,126.97
2019-04-29T17:09:02.993Z,130.57
2019-04-29T17:11:27.400Z,131.27
2019-04-29T17:13:56.243Z,108.90
2019-04-29T17:16:26.818Z,121.47
2019-04-29T17:18:55.917Z,85.10
2019-04-29T17:21:24.945Z,90.80
2019-04-29T17:23:53.774Z,81.00
2019-04-29T17:26:24.642Z,84.00
2019-04-29T17:29:37.399Z,97.20
2019-04-29T17:32:00.083Z,107.53
2019-04-29T17:34:56.683Z,103.57
2019-04-29T17:37:00.778Z,94.63
2019-04-29T17:39:29.618Z,89.73
2019-04-29T17:41:58.547Z,103.57
2019-04-29T17:44:46.312Z,96.83
2019-04-29T17:47:37.935Z,107.43
2019-04-29T17:50:16.097Z,91.37
2019-04-29T17:52:45.014Z,105.17
2019-04-29T17:55:22.139Z,109.67
2019-04-29T17:58:06.207Z,105.53
2019-04-29T18:00:56.294Z,81.77
2019-04-29T18:03:55.882Z,104.17
2019-04-29T18:06:37.948Z,82.00
2019-04-29T18:09:29.496Z,103.60
2019-04-29T18:12:01.109Z,95.90
2019-04-29T18:14:37.273Z,124.80
2019-04-29T18:17:01.122Z,105.77
2019-04-29T18:19:47.893Z,92.13
2019-04-29T18:22:34.981Z,75.63
2019-04-29T18:25:38.836Z,99.43
2019-04-29T18:28:10.582Z,89.03
2019-04-29T18:30:39.557Z,118.50
2019-04-29T18:33:08.350Z,84.00
2019-04-29T18:35:37.281Z,71.10
2019-04-29T18:38:07.626Z,79.03
2019-04-29T18:40:41.883Z,76.93
2019-04-29T18:43:07.844Z,83.77
2019-04-29T18:45:39.681Z,68.67
2019-04-29T18:48:16.586Z,81.67
2019-04-29T18:50:39.366Z,99.97
2019-04-29T18:53:08.320Z,84.87
2019-04-29T18:55:37.625Z,75.17
2019-04-29T18:58:07.134Z,81.23
2019-04-29T19:00:36.102Z,67.20
2019-04-29T19:03:06.562Z,109.20
2019-04-29T19:05:41.378Z,94.63
2019-04-29T19:08:14.486Z,85.57
2019-04-29T19:10:40.846Z,81.10
2019-04-29T19:13:14.893Z,125.27
2019-04-29T19:15:46.775Z,71.63
2019-04-29T19:18:12.356Z,84.97
2019-04-29T19:20:41.554Z,97.00
2019-04-29T19:23:10.730Z,101.00
2019-04-29T19:25:41.485Z,109.97
2019-04-29T19:28:14.358Z,84.73
2019-04-29T19:30:40.826Z,106.77
2019-04-29T19:33:09.721Z,94.67
2019-04-29T19:35:38.863Z,106.63
2019-04-29T19:38:12.382Z,92.73
2019-04-29T19:40:42.504Z,86.87
2019-04-29T19:43:10.435Z,95.00
2019-04-29T19:45:39.898Z,103.87
2019-04-29T19:48:08.722Z,76.33
2019-04-29T19:50:38.069Z,96.40
2019-04-29T19:53:06.941Z,74.30
2019-04-29T19:55:41.740Z,74.47
2019-04-29T19:58:07.509Z,82.60
2019-04-29T20:00:39.060Z,63.93
2019-04-29T20:03:20.501Z,78.27
2019-04-29T20:05:47.003Z,68.37
2019-04-29T20:08:37.326Z,75.77
2019-04-29T20:10:51.265Z,69.30
2019-04-29T20:13:17.979Z,71.30
2019-04-29T20:16:10.161Z,78.47
2019-04-29T20:18:58.475Z,79.20
2019-04-29T20:21:24.647Z,82.50
2019-04-29T20:23:52.941Z,82.87
2019-04-29T20:26:28.609Z,68.33
2019-04-29T20:28:50.992Z,64.77
2019-04-29T20:31:22.317Z,62.10
2019-04-29T20:33:51.252Z,58.97
2019-04-29T20:36:33.088Z,60.90
2019-04-29T20:38:51.120Z,67.17
2019-04-29T20:41:36.772Z,78.33
2019-04-29T20:43:50.760Z,64.97
2019-04-29T20:46:19.814Z,76.53
2019-04-29T20:48:50.514Z,68.30
2019-04-29T20:51:23.347Z,70.77
2019-04-29T20:53:56.111Z,72.47
2019-04-29T20:56:28.823Z,76.30
2019-04-29T20:58:55.660Z,69.00
